createdAt,value
2022-10-22T00:02:07.794Z,9.00
2022-10-22T00:04:37.185Z,8.97
2022-10-22T00:07:06.373Z,8.97
2022-10-22T00:09:35.395Z,8.98
2022-10-22T00:12:04.798Z,8.97
2022-10-22T00:14:35.252Z,8.97
2022-10-22T00:17:06.897Z,9.00
2022-10-22T00:19:40.819Z,9.00
2022-10-22T00:22:10.735Z,9.04
2022-10-22T00:24:41.222Z,9.07
2022-10-22T00:27:12.067Z,9.10
2022-10-22T00:29:42.550Z,9.13
2022-10-22T00:32:11.706Z,9.10
2022-10-22T00:34:40.669Z,9.10
2022-10-22T00:37:09.846Z,9.14
2022-10-22T00:39:38.851Z,9.12
2022-10-22T00:42:08.097Z,9.09
2022-10-22T00:45:09.503Z,9.13
2022-10-22T00:47:41.474Z,9.12
2022-10-22T00:50:15.571Z,9.14
2022-10-22T00:52:45.112Z,9.15
2022-10-22T00:55:15.359Z,9.16
2022-10-22T00:57:44.758Z,9.17
2022-10-22T01:00:16.183Z,9.16
2022-10-22T01:02:45.596Z,9.20
2022-10-22T01:05:14.737Z,9.23
2022-10-22T01:07:46.189Z,9.22
2022-10-22T01:10:25.620Z,9.21
2022-10-22T01:13:07.408Z,9.21
2022-10-22T01:15:46.916Z,9.18
2022-10-22T01:18:21.795Z,9.19
2022-10-22T01:21:11.323Z,9.20
2022-10-22T01:24:10.873Z,9.20
2022-10-22T01:26:54.247Z,9.18
2022-10-22T01:29:30.606Z,9.16
2022-10-22T01:32:02.846Z,9.17
2022-10-22T01:34:33.462Z,9.20
2022-10-22T01:37:03.956Z,9.23
2022-10-22T01:39:35.889Z,9.24
2022-10-22T01:42:04.958Z,9.29
2022-10-22T01:44:37.753Z,9.31
2022-10-22T01:47:22.483Z,9.33
2022-10-22T01:50:23.256Z,9.32
2022-10-22T01:53:08.664Z,9.35
2022-10-22T01:55:49.797Z,9.37
2022-10-22T01:58:29.946Z,9.39
2022-10-22T02:01:07.563Z,9.42
2022-10-22T02:03:41.882Z,9.44
2022-10-22T02:06:15.817Z,9.45
2022-10-22T02:08:46.294Z,9.44
2022-10-22T02:11:16.724Z,9.39
2022-10-22T02:13:49.664Z,9.40
2022-10-22T02:16:25.419Z,9.41
2022-10-22T02:18:57.844Z,9.41
2022-10-22T02:21:27.835Z,9.41
2022-10-22T02:23:57.125Z,9.41
2022-10-22T02:26:32.981Z,9.42
2022-10-22T02:29:06.752Z,9.46
2022-10-22T02:31:41.896Z,9.46
2022-10-22T02:34:15.231Z,9.46
2022-10-22T02:36:48.238Z,9.45
2022-10-22T02:39:20.336Z,9.45
2022-10-22T02:41:49.970Z,9.40
2022-10-22T02:44:22.888Z,9.38
2022-10-22T02:46:53.608Z,9.40
2022-10-22T02:49:22.563Z,9.42
2022-10-22T02:51:52.148Z,9.41
2022-10-22T02:54:21.066Z,9.43
2022-10-22T02:56:50.214Z,9.44
2022-10-22T02:59:19.141Z,9.40
2022-10-22T03:01:48.290Z,9.40
2022-10-22T03:04:18.632Z,9.41
2022-10-22T03:06:49.033Z,9.43
2022-10-22T03:09:21.301Z,9.41
2022-10-22T03:11:53.417Z,9.42
2022-10-22T03:14:22.465Z,9.48
2022-10-22T03:16:51.609Z,9.47
2022-10-22T03:19:21.932Z,9.47
2022-10-22T03:21:55.833Z,9.44
2022-10-22T03:24:29.789Z,9.45
2022-10-22T03:27:00.002Z,9.40
2022-10-22T03:29:30.366Z,9.39
2022-10-22T03:31:59.562Z,9.40
2022-10-22T03:34:29.888Z,9.41
2022-10-22T03:37:01.182Z,9.41
2022-10-22T03:39:33.323Z,9.40
2022-10-22T03:42:03.309Z,9.39
2022-10-22T03:44:32.937Z,9.42
2022-10-22T03:47:02.848Z,9.47
2022-10-22T03:49:33.829Z,9.47
2022-10-22T03:52:08.025Z,9.48
2022-10-22T03:57:13.241Z,9.47
2022-10-22T03:59:44.565Z,9.47
2022-10-22T04:02:14.903Z,9.48
2022-10-22T04:04:45.209Z,9.47
2022-10-22T04:07:14.347Z,9.47
2022-10-22T04:09:43.269Z,9.46
2022-10-22T04:12:12.400Z,9.47
2022-10-22T04:14:41.327Z,9.48
2022-10-22T04:17:10.466Z,9.49
2022-10-22T04:19:39.465Z,9.48
2022-10-22T04:22:09.993Z,9.47
2022-10-22T04:24:38.940Z,9.45
2022-10-22T04:27:08.101Z,9.46
2022-10-22T04:29:37.087Z,9.47
2022-10-22T04:32:06.460Z,9.45
2022-10-22T04:34:35.454Z,9.45
2022-10-22T04:37:04.888Z,9.40
2022-10-22T04:39:35.240Z,9.36
2022-10-22T04:42:04.895Z,9.32
2022-10-22T04:44:34.200Z,9.28
2022-10-22T04:47:03.331Z,9.27
2022-10-22T04:49:32.258Z,9.28
2022-10-22T04:52:01.388Z,9.25
2022-10-22T04:54:33.040Z,9.23
2022-10-22T04:57:03.895Z,9.24
2022-10-22T04:59:32.634Z,9.21
2022-10-22T05:02:01.769Z,9.19
2022-10-22T05:04:30.705Z,9.23
2022-10-22T05:06:59.896Z,9.25
2022-10-22T05:09:28.832Z,9.29
2022-10-22T05:11:58.014Z,9.27
2022-10-22T05:14:28.341Z,9.30
2022-10-22T05:16:57.491Z,9.33
2022-10-22T05:19:28.010Z,9.36
2022-10-22T05:21:59.282Z,9.36
2022-10-22T05:24:29.944Z,9.36
2022-10-22T05:27:00.919Z,9.35
2022-10-22T05:29:31.281Z,9.33
2022-10-22T05:32:00.455Z,9.33
2022-10-22T05:34:29.422Z,9.36
2022-10-22T05:36:58.571Z,9.36
2022-10-22T05:39:27.740Z,9.32
2022-10-22T05:41:56.926Z,9.23
2022-10-22T05:44:25.855Z,9.14
2022-10-22T05:46:56.513Z,9.16
2022-10-22T05:49:25.526Z,9.16
2022-10-22T05:51:54.700Z,9.18
2022-10-22T05:54:23.749Z,9.21
2022-10-22T05:56:52.889Z,9.21
2022-10-22T05:59:21.837Z,9.24
2022-10-22T06:01:51.123Z,9.25
2022-10-22T06:04:21.643Z,9.27
2022-10-22T06:06:53.840Z,9.26
2022-10-22T06:09:26.060Z,9.25
2022-10-22T06:11:56.009Z,9.28
2022-10-22T06:14:25.773Z,9.30
2022-10-22T06:16:55.190Z,9.32
2022-10-22T06:19:26.859Z,9.33
2022-10-22T06:21:56.042Z,9.35
2022-10-22T06:24:25.029Z,9.34
2022-10-22T06:26:54.769Z,9.34
2022-10-22T06:29:23.980Z,9.32
2022-10-22T06:31:53.134Z,9.37
2022-10-22T06:34:22.100Z,9.40
2022-10-22T06:36:52.632Z,9.42
2022-10-22T06:39:21.341Z,9.45
2022-10-22T06:41:50.521Z,9.43
2022-10-22T06:44:20.738Z,9.42
2022-10-22T06:46:52.103Z,9.47
2022-10-22T06:49:22.113Z,9.49
2022-10-22T06:51:53.066Z,9.47
2022-10-22T06:54:22.541Z,9.49
2022-10-22T06:56:51.742Z,9.51
2022-10-22T06:59:20.718Z,9.54
2022-10-22T07:01:50.021Z,9.57
2022-10-22T07:04:19.043Z,9.58
2022-10-22T07:06:48.211Z,9.59
2022-10-22T07:11:52.583Z,9.62
2022-10-22T07:14:21.613Z,9.66
2022-10-22T07:16:50.759Z,9.64
2022-10-22T07:19:19.715Z,9.61
2022-10-22T07:21:48.890Z,9.61
2022-10-22T07:24:19.267Z,9.58
2022-10-22T07:26:48.529Z,9.59
2022-10-22T07:29:17.594Z,9.58
2022-10-22T07:31:47.109Z,9.59
2022-10-22T07:34:16.382Z,9.61
2022-10-22T07:36:45.627Z,9.63
2022-10-22T07:39:14.612Z,9.67
2022-10-22T07:41:45.197Z,9.71
2022-10-22T07:44:14.378Z,9.71
2022-10-22T07:46:48.033Z,9.73
2022-10-22T07:49:18.070Z,9.75
2022-10-22T07:51:47.321Z,9.76
2022-10-22T07:54:16.697Z,9.76
2022-10-22T07:56:47.268Z,9.77
2022-10-22T07:59:16.412Z,9.81
2022-10-22T08:01:46.920Z,9.83
2022-10-22T08:04:16.020Z,9.83
2022-10-22T08:06:47.224Z,9.83
2022-10-22T08:09:17.036Z,9.86
2022-10-22T08:11:47.736Z,9.87
2022-10-22T08:14:17.276Z,9.85
2022-10-22T08:16:46.443Z,9.85
2022-10-22T08:19:18.814Z,9.88
2022-10-22T08:21:48.089Z,9.91
2022-10-22T08:24:17.069Z,9.92
2022-10-22T08:26:47.643Z,9.95
2022-10-22T08:29:16.903Z,9.97
2022-10-22T08:31:54.383Z,10.01
2022-10-22T08:34:25.004Z,10.05
2022-10-22T08:36:54.206Z,10.09
2022-10-22T08:39:23.688Z,10.11
2022-10-22T08:42:29.493Z,10.14
2022-10-22T08:45:16.996Z,10.17
2022-10-22T08:48:10.669Z,10.18
2022-10-22T08:50:42.177Z,10.16
2022-10-22T08:53:16.685Z,10.14
2022-10-22T08:55:46.129Z,10.17
2022-10-22T08:58:24.020Z,10.19
2022-10-22T09:00:59.875Z,10.21
2022-10-22T09:03:51.520Z,10.24
2022-10-22T09:06:23.728Z,10.25
2022-10-22T09:08:55.038Z,10.29
2022-10-22T09:11:29.429Z,10.32
2022-10-22T09:14:08.595Z,10.36
2022-10-22T09:16:44.162Z,10.40
2022-10-22T09:19:22.681Z,10.41
2022-10-22T09:22:02.946Z,10.41
2022-10-22T09:24:38.580Z,10.44
2022-10-22T09:27:17.427Z,10.48
2022-10-22T09:29:49.192Z,10.48
2022-10-22T09:32:18.719Z,10.48
2022-10-22T09:34:49.018Z,10.50
2022-10-22T09:37:20.114Z,10.53
2022-10-22T09:39:52.624Z,10.55
2022-10-22T09:42:23.357Z,10.59
2022-10-22T09:44:57.483Z,10.62
2022-10-22T09:47:43.718Z,10.65
2022-10-22T09:50:26.465Z,10.66
2022-10-22T09:53:06.441Z,10.70
2022-10-22T09:55:35.614Z,10.72
2022-10-22T09:58:04.669Z,10.77
2022-10-22T10:04:09.344Z,10.86
2022-10-22T10:06:56.902Z,10.89
2022-10-22T10:09:59.352Z,10.91
2022-10-22T10:16:57.945Z,10.96
2022-10-22T10:19:47.052Z,10.99
2022-10-22T10:22:27.133Z,11.02
2022-10-22T10:25:03.584Z,11.04
2022-10-22T10:27:41.531Z,11.07
2022-10-22T10:30:34.302Z,11.11
2022-10-22T10:36:28.616Z,11.20
2022-10-22T10:39:06.100Z,11.22
2022-10-22T10:42:00.071Z,11.27
2022-10-22T10:45:01.441Z,11.28
2022-10-22T10:47:52.500Z,11.32
2022-10-22T10:50:30.574Z,11.35
2022-10-22T10:53:11.743Z,11.39
2022-10-22T10:55:53.557Z,11.43
2022-10-22T10:58:32.987Z,11.45
2022-10-22T11:01:11.926Z,11.49
2022-10-22T11:04:07.525Z,11.54
2022-10-22T11:06:40.276Z,11.60
2022-10-22T11:09:24.544Z,11.61
2022-10-22T11:11:56.825Z,11.67
2022-10-22T11:14:33.002Z,11.69
2022-10-22T11:17:06.202Z,11.72
2022-10-22T11:19:51.584Z,11.74
2022-10-22T11:22:30.669Z,11.79
2022-10-22T11:25:06.941Z,11.80
2022-10-22T11:27:41.346Z,11.82
2022-10-22T11:30:16.465Z,11.86
2022-10-22T11:32:48.398Z,11.87
2022-10-22T11:35:25.566Z,11.88
2022-10-22T11:37:58.095Z,11.92
2022-10-22T11:41:06.143Z,11.95
2022-10-22T11:43:36.785Z,11.96
2022-10-22T11:46:26.887Z,12.00
2022-10-22T11:49:17.874Z,12.01
2022-10-22T11:51:48.048Z,12.01
2022-10-22T11:54:33.140Z,12.04
2022-10-22T11:57:24.411Z,12.06
2022-10-22T12:00:00.699Z,12.07
2022-10-22T12:02:43.955Z,12.11
2022-10-22T12:05:43.681Z,12.13
2022-10-22T12:08:34.490Z,12.14
2022-10-22T12:11:15.438Z,12.15
2022-10-22T12:14:02.645Z,12.16
2022-10-22T12:19:33.704Z,12.22
2022-10-22T12:22:18.184Z,12.23
2022-10-22T12:24:52.408Z,12.21
2022-10-22T12:27:25.653Z,12.24
2022-10-22T12:29:59.259Z,12.25
2022-10-22T12:32:46.943Z,12.29
2022-10-22T12:35:47.124Z,12.31
2022-10-22T12:38:20.243Z,12.33
2022-10-22T12:40:51.266Z,12.35
2022-10-22T12:43:26.475Z,12.37
2022-10-22T12:45:57.663Z,12.38
2022-10-22T12:48:29.505Z,12.39
2022-10-22T12:51:01.610Z,12.43
2022-10-22T12:53:37.871Z,12.45
2022-10-22T12:56:11.652Z,12.46
2022-10-22T12:58:56.614Z,12.49
2022-10-22T13:01:29.170Z,12.52
2022-10-22T13:04:08.278Z,12.53
2022-10-22T13:06:37.688Z,12.53
2022-10-22T13:09:17.567Z,12.54
2022-10-22T13:11:53.006Z,12.55
2022-10-22T13:14:29.140Z,12.56
2022-10-22T13:17:14.802Z,12.59
2022-10-22T13:19:48.323Z,12.62
2022-10-22T13:22:33.296Z,12.62
2022-10-22T13:25:20.490Z,12.63
2022-10-22T13:27:51.530Z,12.63
2022-10-22T13:30:25.121Z,12.65
2022-10-22T13:32:57.259Z,12.65
2022-10-22T13:35:29.163Z,12.67
2022-10-22T13:37:58.146Z,12.69
2022-10-22T13:40:27.828Z,12.71
2022-10-22T13:42:56.755Z,12.73
2022-10-22T13:45:27.602Z,12.76
2022-10-22T13:47:57.136Z,12.79
2022-10-22T13:50:26.533Z,12.82
2022-10-22T13:52:57.578Z,12.82
2022-10-22T13:55:29.268Z,12.85
2022-10-22T13:58:01.714Z,12.85
2022-10-22T14:00:32.407Z,12.86
2022-10-22T14:03:01.839Z,12.87
2022-10-22T14:05:32.576Z,12.88
2022-10-22T14:08:02.330Z,12.89
2022-10-22T14:10:31.685Z,12.89
2022-10-22T14:13:00.624Z,12.91
2022-10-22T14:15:32.273Z,12.91
2022-10-22T14:18:01.973Z,12.91
2022-10-22T14:20:33.975Z,12.92
2022-10-22T14:23:13.066Z,12.94
2022-10-22T14:25:42.721Z,12.92
2022-10-22T14:28:12.864Z,12.93
2022-10-22T14:30:43.464Z,12.95
2022-10-22T14:33:16.542Z,12.95
2022-10-22T14:35:45.982Z,12.95
2022-10-22T14:38:14.942Z,12.96
2022-10-22T14:40:44.959Z,12.98
2022-10-22T14:43:15.905Z,12.99
2022-10-22T14:45:46.491Z,12.99
2022-10-22T14:48:16.545Z,12.99
2022-10-22T14:50:47.114Z,12.99
2022-10-22T14:53:16.743Z,12.98
2022-10-22T14:55:47.435Z,12.99
2022-10-22T14:58:16.843Z,13.00
2022-10-22T15:00:47.450Z,13.00
2022-10-22T15:03:16.438Z,12.99
2022-10-22T15:05:46.620Z,12.98
2022-10-22T15:08:16.623Z,12.98
2022-10-22T15:10:45.593Z,12.96
2022-10-22T15:13:14.563Z,12.99
2022-10-22T15:15:43.828Z,12.98
2022-10-22T15:18:14.220Z,12.96
2022-10-22T15:20:43.368Z,12.98
2022-10-22T15:23:12.356Z,12.99
2022-10-22T15:25:45.460Z,13.02
2022-10-22T15:28:14.590Z,13.04
2022-10-22T15:30:43.819Z,13.04
2022-10-22T15:33:14.258Z,13.06
2022-10-22T15:35:43.415Z,13.07
2022-10-22T15:38:12.407Z,13.06
2022-10-22T15:40:41.641Z,13.06
2022-10-22T15:43:10.859Z,13.07
2022-10-22T15:45:40.136Z,13.10
2022-10-22T15:48:10.481Z,13.10
2022-10-22T15:50:42.922Z,13.13
2022-10-22T15:53:12.477Z,13.14
2022-10-22T15:55:41.680Z,13.13
2022-10-22T15:58:10.814Z,13.14
2022-10-22T16:00:40.272Z,13.13
2022-10-22T16:03:09.687Z,13.14
2022-10-22T16:05:54.568Z,13.17
2022-10-22T16:08:23.932Z,13.16
2022-10-22T16:10:57.287Z,13.18
2022-10-22T16:13:27.507Z,13.19
2022-10-22T16:15:57.112Z,13.20
2022-10-22T16:18:28.618Z,13.21
2022-10-22T16:20:59.137Z,13.22
2022-10-22T16:23:33.507Z,13.23
2022-10-22T16:26:06.590Z,13.24
2022-10-22T16:28:41.443Z,13.24
2022-10-22T16:31:12.770Z,13.23
2022-10-22T16:33:47.741Z,13.24
2022-10-22T16:36:23.043Z,13.24
2022-10-22T16:38:52.217Z,13.25
2022-10-22T16:41:23.712Z,13.22
2022-10-22T16:43:55.858Z,13.22
2022-10-22T16:46:25.654Z,13.20
2022-10-22T16:48:55.268Z,13.21
2022-10-22T16:51:27.931Z,13.20
2022-10-22T16:53:59.214Z,13.18
2022-10-22T16:56:28.813Z,13.20
2022-10-22T16:58:58.887Z,13.19
2022-10-22T17:01:29.250Z,13.19
2022-10-22T17:04:00.435Z,13.21
2022-10-22T17:06:31.137Z,13.21
2022-10-22T17:09:00.253Z,13.24
2022-10-22T17:11:34.813Z,13.25
2022-10-22T17:14:04.905Z,13.26
2022-10-22T17:16:34.168Z,13.29
2022-10-22T17:19:05.410Z,13.28
2022-10-22T17:21:35.984Z,13.28
2022-10-22T17:24:05.168Z,13.31
2022-10-22T17:26:34.700Z,13.33
2022-10-22T17:29:04.198Z,13.34
2022-10-22T17:31:37.222Z,13.35
2022-10-22T17:34:08.185Z,13.34
2022-10-22T17:36:39.146Z,13.37
2022-10-22T17:39:09.051Z,13.39
2022-10-22T17:41:39.098Z,13.42
2022-10-22T17:44:09.974Z,13.42
2022-10-22T17:46:39.726Z,13.42
2022-10-22T17:49:14.341Z,13.44
2022-10-22T17:51:44.934Z,13.44
2022-10-22T17:54:14.957Z,13.46
2022-10-22T17:56:44.182Z,13.44
2022-10-22T17:59:17.120Z,13.45
2022-10-22T18:01:47.732Z,13.45
2022-10-22T18:04:19.519Z,13.47
2022-10-22T18:06:50.709Z,13.48
2022-10-22T18:09:20.563Z,13.45
2022-10-22T18:11:50.830Z,13.47
2022-10-22T18:14:21.362Z,13.47
2022-10-22T18:16:51.061Z,13.50
2022-10-22T18:19:23.195Z,13.45
2022-10-22T18:21:53.827Z,13.47
2022-10-22T18:24:23.081Z,13.48
2022-10-22T18:26:53.106Z,13.50
2022-10-22T18:29:25.086Z,13.47
2022-10-22T18:31:54.346Z,13.49
2022-10-22T18:34:24.075Z,13.50
2022-10-22T18:36:56.209Z,13.48
2022-10-22T18:39:25.492Z,13.50
2022-10-22T18:41:54.866Z,13.50
2022-10-22T18:44:25.777Z,13.51
2022-10-22T18:46:54.966Z,13.51
2022-10-22T18:49:23.917Z,13.52
2022-10-22T18:51:54.530Z,13.51
2022-10-22T18:54:24.652Z,13.51
2022-10-22T18:57:00.604Z,13.43
2022-10-22T18:59:31.330Z,13.40
2022-10-22T19:02:00.673Z,13.40
2022-10-22T19:04:36.793Z,13.36
2022-10-22T19:09:38.448Z,13.40
2022-10-22T19:12:09.017Z,13.43
2022-10-22T19:14:38.318Z,13.44
2022-10-22T19:17:07.530Z,13.45
2022-10-22T19:19:36.869Z,13.47
2022-10-22T19:22:07.565Z,13.47
2022-10-22T19:24:36.713Z,13.48
2022-10-22T19:27:06.095Z,13.45
2022-10-22T19:29:35.212Z,13.47
2022-10-22T19:32:04.900Z,13.49
2022-10-22T19:34:33.976Z,13.46
2022-10-22T19:37:03.555Z,13.49
2022-10-22T19:39:34.134Z,13.51
2022-10-22T19:42:04.269Z,13.54
2022-10-22T19:44:33.364Z,13.53
2022-10-22T19:47:02.573Z,13.55
2022-10-22T19:49:31.632Z,13.56
2022-10-22T19:52:00.881Z,13.57
2022-10-22T19:54:29.906Z,13.57
2022-10-22T19:57:00.659Z,13.59
2022-10-22T19:59:31.496Z,13.60
2022-10-22T20:02:01.836Z,13.62
2022-10-22T20:04:31.199Z,13.61
2022-10-22T20:07:00.479Z,13.62
2022-10-22T20:09:29.449Z,13.62
2022-10-22T20:12:00.062Z,13.59
2022-10-22T20:14:29.146Z,13.59
2022-10-22T20:16:58.356Z,13.61
2022-10-22T20:19:29.253Z,13.62
2022-10-22T20:24:32.859Z,13.62
2022-10-22T20:27:03.453Z,13.62
2022-10-22T20:29:32.436Z,13.63
2022-10-22T20:32:03.270Z,13.61
2022-10-22T20:34:34.930Z,13.56
2022-10-22T20:37:04.339Z,13.60
2022-10-22T20:39:33.347Z,13.59
2022-10-22T20:42:04.052Z,13.60
2022-10-22T20:44:33.164Z,13.61
2022-10-22T20:47:02.565Z,13.60
2022-10-22T20:49:32.910Z,13.63
2022-10-22T20:52:02.226Z,13.61
2022-10-22T20:54:31.292Z,13.64
2022-10-22T20:57:02.078Z,13.66
2022-10-22T20:59:34.815Z,13.66
2022-10-22T21:02:04.345Z,13.66
2022-10-22T21:04:34.760Z,13.64
2022-10-22T21:07:04.042Z,13.63
2022-10-22T21:09:34.671Z,13.65
2022-10-22T21:12:05.043Z,13.62
2022-10-22T21:14:35.277Z,13.62
2022-10-22T21:17:04.408Z,13.52
2022-10-22T21:19:33.377Z,13.62
2022-10-22T21:22:02.597Z,13.61
2022-10-22T21:24:32.120Z,13.60
2022-10-22T21:27:02.600Z,13.57
2022-10-22T21:29:32.071Z,13.54
2022-10-22T21:32:02.975Z,13.55
2022-10-22T21:34:38.162Z,13.56
2022-10-22T21:37:08.324Z,13.55
2022-10-22T21:39:41.204Z,13.51
2022-10-22T21:42:11.624Z,13.49
2022-10-22T21:44:40.722Z,13.53
2022-10-22T21:47:11.501Z,13.51
2022-10-22T21:49:40.656Z,13.51
2022-10-22T21:52:09.859Z,13.52
2022-10-22T21:54:39.856Z,13.55
2022-10-22T21:57:09.140Z,13.52
2022-10-22T21:59:39.712Z,13.50
2022-10-22T22:02:10.120Z,13.49
2022-10-22T22:04:39.004Z,13.47
2022-10-22T22:07:08.215Z,13.42
2022-10-22T22:09:37.429Z,13.42
2022-10-22T22:12:06.841Z,13.44
2022-10-22T22:14:36.614Z,13.41
2022-10-22T22:17:05.907Z,13.43
2022-10-22T22:19:36.404Z,13.45
2022-10-22T22:22:05.699Z,13.45
2022-10-22T22:24:35.960Z,13.42
2022-10-22T22:27:05.401Z,13.42
2022-10-22T22:29:34.837Z,13.47
2022-10-22T22:32:04.090Z,13.46
2022-10-22T22:34:33.061Z,13.42
2022-10-22T22:37:03.648Z,13.42
2022-10-22T22:39:32.810Z,13.43
2022-10-22T22:42:01.978Z,13.44
2022-10-22T22:44:30.977Z,13.45
2022-10-22T22:47:16.663Z,13.42
2022-10-22T22:49:45.879Z,13.41
2022-10-22T22:52:16.483Z,13.43
2022-10-22T22:54:45.643Z,13.41
2022-10-22T22:57:15.954Z,13.37
2022-10-22T22:59:45.050Z,13.42
2022-10-22T23:02:15.498Z,13.43
2022-10-22T23:04:44.404Z,13.39
2022-10-22T23:07:15.187Z,13.41
2022-10-22T23:09:44.185Z,13.42
2022-10-22T23:12:13.700Z,13.33
2022-10-22T23:14:42.686Z,13.39
2022-10-22T23:17:12.033Z,13.45
2022-10-22T23:19:41.059Z,13.42
2022-10-22T23:22:10.467Z,13.37
2022-10-22T23:24:41.460Z,13.38
2022-10-22T23:27:12.196Z,13.37
2022-10-22T23:29:41.339Z,13.38
2022-10-22T23:32:15.295Z,13.42
2022-10-22T23:34:44.443Z,13.42
2022-10-22T23:37:14.245Z,13.44
2022-10-22T23:39:44.628Z,13.44
2022-10-22T23:42:13.865Z,13.44
2022-10-22T23:44:43.131Z,13.47
2022-10-22T23:47:12.353Z,13.47
2022-10-22T23:49:41.374Z,13.47
2022-10-22T23:52:10.572Z,13.48
2022-10-22T23:54:39.568Z,13.47
2022-10-22T23:57:10.235Z,13.46
2022-10-22T23:59:39.379Z,13.45
